Time;durP1;ratioP1;P1;durP2;ratioP2;P2;SDS_P1;SDS_P2;PMS_P1;PMS_P2;Temp;Humidity;BMP_temperature;BMP_pressure;BME280_temperature;BME280_humidity;BME280_pressure;Samples;Min_cycle;Max_cycle;Signal;HPM_P1;HPM_P2
2022/06/01 00:00:35;;;;;;;2.33;0.93;;;;;;;11.90;61.88;100514.94;6178268;23;20012;-73
2022/06/01 00:03:00;;;;;;;3.25;1.13;;;;;;;11.83;61.42;100506.94;6130155;23;20014;-73
2022/06/01 00:05:26;;;;;;;1.95;0.88;;;;;;;11.78;61.64;100502.31;6178076;23;20002;-73
2022/06/01 00:07:51;;;;;;;1.98;0.80;;;;;;;11.76;62.22;100500.94;6152888;23;20001;-73
2022/06/01 00:10:17;;;;;;;2.88;1.10;;;;;;;11.70;61.90;100500.19;6128838;23;20010;-73
2022/06/01 00:12:43;;;;;;;2.33;0.88;;;;;;;11.67;62.07;100509.13;6153143;23;20013;-73
2022/06/01 00:15:09;;;;;;;2.45;0.93;;;;;;;11.64;62.33;100498.59;6153068;23;20093;-73
2022/06/01 00:17:35;;;;;;;2.25;0.90;;;;;;;11.61;62.98;100499.22;6128716;23;20006;-73
2022/06/01 00:20:01;;;;;;;3.75;0.98;;;;;;;11.60;62.65;100503.94;6128653;23;20492;-73
2022/06/01 00:22:26;;;;;;;2.65;0.90;;;;;;;11.54;62.65;100510.72;6152803;23;20071;-73
2022/06/01 00:24:52;;;;;;;3.28;0.80;;;;;;;11.50;62.51;100503.25;6128636;23;20013;-73
2022/06/01 00:27:17;;;;;;;3.97;1.02;;;;;;;11.47;62.61;100498.31;6177987;23;20006;-73
2022/06/01 00:29:43;;;;;;;1.58;0.95;;;;;;;11.42;63.54;100501.97;6153286;23;20033;-73
2022/06/01 00:32:11;;;;;;;2.35;0.93;;;;;;;11.39;63.36;100499.81;6128488;23;20017;-73
2022/06/01 00:34:36;;;;;;;2.05;1.02;;;;;;;11.37;62.92;100494.56;6104361;23;20010;-73
2022/06/01 00:37:02;;;;;;;2.33;0.95;;;;;;;11.33;63.08;100504.59;6177347;23;20042;-73
2022/06/01 00:39:28;;;;;;;1.48;0.98;;;;;;;11.30;63.18;100498.81;6128543;23;20096;-73
2022/06/01 00:41:53;;;;;;;1.58;0.77;;;;;;;11.25;64.00;100491.38;6153119;23;20013;-73
2022/06/01 00:44:19;;;;;;;3.67;0.90;;;;;;;11.25;64.16;100496.94;6129885;23;20010;-73
2022/06/01 00:46:44;;;;;;;2.13;0.93;;;;;;;11.21;64.06;100495.06;6128204;23;20006;-73
2022/06/01 00:49:17;;;;;;;2.90;1.00;;;;;;;11.19;65.04;100493.41;6128364;23;20100;-73
2022/06/01 00:51:42;;;;;;;;;;;;;;;11.19;64.32;100498.13;6152018;23;20041;-73
2022/06/01 00:54:08;;;;;;;2.08;0.98;;;;;;;11.15;64.53;100495.13;6103805;23;19905;-73
2022/06/01 00:56:39;;;;;;;3.45;1.05;;;;;;;11.11;64.43;100496.84;6128276;23;20014;-73
2022/06/01 00:59:06;;;;;;;2.17;1.17;;;;;;;11.09;64.62;100490.78;6177273;23;20002;-73
2022/06/01 01:01:31;;;;;;;1.15;1.00;;;;;;;11.05;65.47;100489.69;6152584;23;20451;-73
2022/06/01 01:03:57;;;;;;;3.10;1.02;;;;;;;11.02;65.13;100483.91;6152804;23;20013;-73
2022/06/01 01:06:31;;;;;;;3.42;0.90;;;;;;;11.03;65.06;100485.56;6176893;23;20329;-73
2022/06/01 01:08:58;;;;;;;2.92;1.17;;;;;;;10.99;65.99;100490.91;6126745;23;20010;-73
2022/06/01 01:11:32;;;;;;;3.10;1.13;;;;;;;10.98;66.44;100491.19;6177640;23;20006;-73
2022/06/01 01:13:58;;;;;;;1.75;0.90;;;;;;;10.97;65.44;100493.13;6152034;23;20013;-73
2022/06/01 01:16:24;;;;;;;1.95;1.08;;;;;;;10.93;65.51;100487.34;6129910;23;20006;-73
2022/06/01 01:18:51;;;;;;;2.60;1.02;;;;;;;10.92;65.27;100488.50;6129787;23;20062;-73
2022/06/01 01:21:20;;;;;;;2.38;1.00;;;;;;;10.91;65.32;100486.00;6152078;23;20017;-73
2022/06/01 01:23:51;;;;;;;1.35;0.98;;;;;;;10.84;65.55;100480.81;6127773;23;20018;-73
2022/06/01 01:26:17;;;;;;;2.53;1.05;;;;;;;10.86;66.36;100477.72;6129908;23;20012;-73
2022/06/01 01:28:43;;;;;;;3.03;0.80;;;;;;;10.81;65.22;100477.78;6127934;23;20418;-73
2022/06/01 01:31:19;;;;;;;1.83;0.82;;;;;;;10.79;65.33;100478.09;6128155;23;20059;-73
2022/06/01 01:33:46;;;;;;;2.03;0.98;;;;;;;10.77;66.24;100480.31;6127996;23;20010;-73
2022/06/01 01:36:12;;;;;;;1.90;1.00;;;;;;;10.72;66.19;100477.59;6127627;23;20006;-73
2022/06/01 01:38:40;;;;;;;3.55;1.13;;;;;;;10.73;66.39;100473.72;6129771;23;20368;-73
2022/06/01 01:41:09;;;;;;;1.55;0.90;;;;;;;10.67;66.11;100478.50;6177109;23;20014;-73
2022/06/01 01:43:38;;;;;;;4.00;1.10;;;;;;;10.67;66.12;100483.22;6129456;23;20018;-73
2022/06/01 01:46:03;;;;;;;3.38;1.10;;;;;;;10.68;65.67;100490.44;6152213;23;20026;-73
2022/06/01 01:48:30;;;;;;;2.20;0.80;;;;;;;10.62;66.09;100483.28;6129591;23;20336;-73
2022/06/01 01:50:56;;;;;;;2.97;1.00;;;;;;;10.54;65.88;100486.72;6152032;23;20021;-73
2022/06/01 01:53:22;;;;;;;2.17;1.00;;;;;;;10.53;66.04;100483.13;6128891;23;20010;-73
2022/06/01 01:55:56;;;;;;;0.95;0.80;;;;;;;10.53;66.14;100483.13;6152631;23;20010;-73
2022/06/01 01:58:38;;;;;;;2.53;1.20;;;;;;;10.46;66.13;100486.22;6127865;23;20025;-73
2022/06/01 02:01:10;;;;;;;1.90;0.80;;;;;;;10.45;66.38;100494.88;6102498;23;20014;-73
2022/06/01 02:03:35;;;;;;;1.20;0.80;;;;;;;10.41;66.62;100489.06;6152142;23;20501;-73
2022/06/01 02:06:11;;;;;;;2.15;1.00;;;;;;;10.38;66.27;100478.53;6128819;23;20061;-73
2022/06/01 02:08:48;;;;;;;2.17;0.98;;;;;;;10.35;66.56;100481.91;6129369;23;20014;-73
2022/06/01 02:14:35;;;;;;;4.03;1.10;;;;;;;10.28;66.52;100476.72;6156120;23;20020;-73
2022/06/01 02:17:01;;;;;;;1.58;1.10;;;;;;;10.25;66.70;100468.09;6125255;23;20098;-73
2022/06/01 02:19:30;;;;;;;3.10;0.90;;;;;;;10.19;66.73;100464.53;6152252;23;20376;-73
2022/06/01 02:21:55;;;;;;;2.35;0.98;;;;;;;10.18;67.08;100459.28;6151865;23;20033;-73
2022/06/01 02:24:24;;;;;;;1.52;0.80;;;;;;;10.12;66.80;100460.47;6127912;23;20025;-73
2022/06/01 02:26:52;;;;;;;2.78;1.10;;;;;;;10.12;67.01;100466.84;6129179;23;20093;-73
2022/06/01 02:29:19;;;;;;;1.67;0.80;;;;;;;10.05;67.11;100469.94;6129525;23;20077;-73
2022/06/01 02:31:44;;;;;;;1.58;0.95;;;;;;;10.03;67.09;100466.66;6105283;23;20014;-73
2022/06/01 02:34:10;;;;;;;2.25;1.00;;;;;;;10.00;67.12;100470.00;6129649;23;20013;-73
2022/06/01 02:36:37;;;;;;;2.58;1.00;;;;;;;9.98;67.12;100463.91;6104834;23;20010;-73
2022/06/01 02:39:02;;;;;;;2.95;1.30;;;;;;;9.95;67.36;100470.03;6105181;23;20014;-73
2022/06/01 02:44:12;;;;;;;2.05;0.98;;;;;;;9.94;67.20;100456.44;6171871;23;20013;-73
2022/06/01 02:46:38;;;;;;;2.92;1.00;;;;;;;9.87;67.31;100458.75;6179163;23;20010;-73
2022/06/01 02:49:04;;;;;;;3.00;0.80;;;;;;;9.84;67.58;100460.16;6129447;23;20018;-73
2022/06/01 02:51:29;;;;;;;4.05;1.20;;;;;;;9.82;67.50;100462.38;6153435;23;20447;-73
2022/06/01 02:53:55;;;;;;;2.72;1.05;;;;;;;9.77;67.78;100468.78;6129747;23;20010;-73
2022/06/01 02:56:21;;;;;;;1.63;1.10;;;;;;;9.74;67.64;100471.31;6178943;23;20014;-72
2022/06/01 02:58:46;;;;;;;1.52;1.00;;;;;;;9.75;67.54;100475.75;6105358;23;20332;-72
2022/06/01 03:01:12;;;;;;;4.63;1.23;;;;;;;9.71;67.53;100474.69;6178554;23;20043;-73
2022/06/01 03:03:37;;;;;;;3.38;1.20;;;;;;;9.68;67.80;100469.72;6154064;23;20010;-73
2022/06/01 03:06:03;;;;;;;1.98;1.10;;;;;;;9.67;67.77;100485.53;6128871;23;20010;-72
2022/06/01 03:08:28;;;;;;;1.98;0.90;;;;;;;9.65;67.30;100487.75;6129275;23;20021;-72
2022/06/01 03:10:54;;;;;;;1.52;1.20;;;;;;;9.63;67.72;100476.94;6130912;23;20017;-73
2022/06/01 03:13:21;;;;;;;4.05;1.23;;;;;;;9.60;67.86;100487.78;6130842;23;20013;-73
2022/06/01 03:15:46;;;;;;;3.28;1.00;;;;;;;9.54;67.69;100486.19;6129047;23;20034;-72
2022/06/01 03:18:12;;;;;;;2.92;1.10;;;;;;;9.54;67.86;100492.53;6130750;23;20001;-73
2022/06/01 03:20:38;;;;;;;1.55;0.98;;;;;;;9.53;67.60;100493.66;6178450;23;20017;-73
2022/06/01 03:23:04;;;;;;;2.38;1.20;;;;;;;9.50;67.88;100491.47;6129095;23;20014;-73
2022/06/01 03:25:29;;;;;;;3.22;1.13;;;;;;;9.50;68.17;100491.47;6129328;23;20033;-73
2022/06/01 03:27:59;;;;;;;1.42;1.00;;;;;;;9.52;68.10;100489.22;6129511;23;20049;-73
2022/06/01 03:30:25;;;;;;;2.83;1.13;;;;;;;9.46;68.44;100490.38;6130496;23;20352;-73
2022/06/01 03:32:52;;;;;;;1.70;1.05;;;;;;;9.44;68.47;100481.50;6153671;23;20010;-73
2022/06/01 03:35:19;;;;;;;2.30;1.10;;;;;;;9.39;68.38;100489.88;6128898;23;20507;-73
2022/06/01 03:37:44;;;;;;;2.85;1.15;;;;;;;9.38;68.45;100483.50;6130316;23;20037;-73
2022/06/01 03:40:10;;;;;;;2.45;1.23;;;;;;;9.36;68.13;100485.75;6153631;23;20012;-73
2022/06/01 03:42:36;;;;;;;3.17;1.08;;;;;;;9.33;68.59;100486.31;6130843;23;20491;-73
2022/06/01 03:47:45;;;;;;;1.98;1.10;;;;;;;9.28;68.45;100500.19;6130476;23;20387;-73
2022/06/01 03:50:11;;;;;;;2.60;1.10;;;;;;;9.25;68.53;100505.47;6128765;23;20044;-73
2022/06/01 03:52:37;;;;;;;1.52;1.10;;;;;;;9.20;68.90;100502.75;6127795;23;20686;-73
2022/06/01 03:55:03;;;;;;;1.85;1.05;;;;;;;9.16;68.83;100508.84;6104260;23;20010;-73
2022/06/01 03:57:30;;;;;;;3.20;1.35;;;;;;;9.13;69.01;100503.84;6104329;23;20028;-73
2022/06/01 03:59:55;;;;;;;3.22;1.13;;;;;;;9.12;69.17;100507.75;6104134;23;20002;-73
2022/06/01 04:02:21;;;;;;;2.80;1.23;;;;;;;9.11;69.03;100497.78;6153585;23;20017;-73
2022/06/01 04:04:46;;;;;;;2.08;1.13;;;;;;;9.09;69.15;100500.00;6178247;23;20014;-73
2022/06/01 04:07:12;;;;;;;1.92;1.42;;;;;;;9.04;69.27;100505.56;6153208;23;20471;-73
2022/06/01 04:09:37;;;;;;;4.25;1.50;;;;;;;9.07;69.43;100510.53;6128961;23;20017;-73
2022/06/01 04:12:03;;;;;;;1.98;1.20;;;;;;;9.03;69.46;100503.09;6104228;23;20006;-73
2022/06/01 04:14:28;;;;;;;4.10;1.00;;;;;;;9.01;69.17;100506.16;6153477;23;20013;-73
2022/06/01 04:16:54;;;;;;;1.70;1.10;;;;;;;8.99;69.24;100508.34;6153429;23;20017;-73
2022/06/01 04:19:19;;;;;;;1.88;1.10;;;;;;;8.98;69.80;100505.88;6128832;23;20029;-73
2022/06/01 04:21:47;;;;;;;2.25;1.02;;;;;;;8.94;69.43;100511.16;6152866;23;20021;-73
2022/06/01 04:24:15;;;;;;;3.35;1.25;;;;;;;8.94;69.83;100506.47;6153161;23;20070;-73
2022/06/01 04:26:40;;;;;;;3.53;1.20;;;;;;;8.92;70.36;100503.13;6128351;23;20490;-73
2022/06/01 04:29:06;;;;;;;1.58;0.90;;;;;;;8.93;70.44;100512.28;6152910;23;20026;-73
2022/06/01 04:31:32;;;;;;;3.28;1.13;;;;;;;8.93;70.55;100503.97;6153556;23;20013;-73
2022/06/01 04:33:57;;;;;;;2.28;1.00;;;;;;;8.98;70.65;100511.44;6152728;23;20467;-73
2022/06/01 04:36:23;;;;;;;1.50;1.17;;;;;;;8.97;71.03;100516.16;6103024;23;20006;-73
2022/06/01 04:38:48;;;;;;;3.78;1.23;;;;;;;9.03;71.78;100501.16;6128545;23;20001;-73
2022/06/01 04:41:14;;;;;;;3.17;1.00;;;;;;;9.06;72.16;100506.13;6129564;23;20024;-73
2022/06/01 04:43:39;;;;;;;4.25;1.20;;;;;;;9.11;72.89;100500.56;6153101;23;20037;-73
2022/06/01 04:46:05;;;;;;;2.55;1.10;;;;;;;9.17;73.14;100499.41;6152689;23;20034;-73
2022/06/01 04:48:30;;;;;;;2.13;1.40;;;;;;;9.27;74.66;100500.47;6129798;23;20005;-73
2022/06/01 04:50:56;;;;;;;2.97;1.40;;;;;;;9.34;74.45;100503.78;6103237;23;20060;-73
2022/06/01 04:53:22;;;;;;;2.80;1.60;;;;;;;9.39;75.31;100506.50;6128166;23;20017;-71
2022/06/01 04:55:47;;;;;;;2.97;1.33;;;;;;;9.44;75.81;100503.69;6129388;23;20017;-70
2022/06/01 04:58:13;;;;;;;2.58;1.20;;;;;;;9.51;76.84;100508.94;6178160;23;20025;-71
2022/06/01 05:00:39;;;;;;;2.28;1.50;;;;;;;9.56;77.86;100498.63;6152905;23;20010;-71
2022/06/01 05:03:05;;;;;;;3.97;1.50;;;;;;;9.65;78.56;100503.56;6128087;23;20041;-71
2022/06/01 05:05:30;;;;;;;2.35;1.50;;;;;;;9.71;79.88;100497.69;6127565;23;20412;-71
2022/06/01 05:07:56;;;;;;;3.33;1.50;;;;;;;9.80;81.30;100490.41;6152373;23;20036;-70
2022/06/01 05:10:22;;;;;;;2.20;1.20;;;;;;;9.91;81.70;100490.31;6127815;23;20017;-71
2022/06/01 05:12:48;;;;;;;3.50;1.40;;;;;;;10.01;81.00;100485.53;6129760;23;20506;-70
2022/06/01 05:15:14;;;;;;;3.17;1.58;;;;;;;10.12;85.27;100491.81;6129479;23;20069;-70
2022/06/01 05:17:39;;;;;;;2.83;1.67;;;;;;;10.24;85.81;100496.97;6129659;23;20005;-71
2022/06/01 05:20:05;;;;;;;3.15;1.40;;;;;;;10.38;79.36;100497.97;6177166;23;20017;-70
2022/06/01 05:22:31;;;;;;;3.45;1.40;;;;;;;10.56;78.63;100503.88;6103186;23;20432;-71
2022/06/01 05:24:56;;;;;;;3.10;1.80;;;;;;;10.71;80.05;100504.56;6103948;23;20033;-70
2022/06/01 05:27:22;;;;;;;4.05;1.55;;;;;;;10.89;76.34;100496.56;6152521;23;20336;-70
2022/06/01 05:29:47;;;;;;;2.88;1.23;;;;;;;11.08;74.43;100502.16;6177222;23;20022;-70
2022/06/01 05:32:13;;;;;;;2.33;1.15;;;;;;;11.26;74.87;100498.59;6152739;23;20010;-74
2022/06/01 05:34:40;;;;;;;1.40;1.20;;;;;;;11.46;71.81;100503.06;6103836;23;20032;-74
2022/06/01 05:37:05;;;;;;;3.33;1.20;;;;;;;11.67;71.69;100502.75;6127748;23;20337;-74
2022/06/01 05:39:31;;;;;;;2.35;1.20;;;;;;;11.87;70.14;100498.84;6128018;23;20033;-74
2022/06/01 05:41:56;;;;;;;4.90;1.30;;;;;;;12.08;69.81;100486.25;6152731;23;20017;-73
2022/06/01 05:44:22;;;;;;;3.00;1.40;;;;;;;12.29;68.73;100495.91;6128169;23;20010;-73
2022/06/01 05:46:58;;;;;;;3.45;1.27;;;;;;;12.52;70.33;100496.03;6103301;23;20504;-69
2022/06/01 05:49:23;;;;;;;4.63;2.00;;;;;;;12.72;74.70;100501.22;6127771;23;20510;-69
2022/06/01 05:51:48;;;;;;;2.03;1.20;;;;;;;12.94;69.50;100496.88;6152261;23;20017;-69
2022/06/01 05:54:14;;;;;;;2.88;1.50;;;;;;;13.17;70.64;100501.38;6127366;23;20014;-69
2022/06/01 05:56:39;;;;;;;38.08;14.55;;;;;;;13.37;68.35;100502.13;6128223;23;20057;-69
2022/06/01 05:59:05;;;;;;;24.13;9.70;;;;;;;13.60;65.62;100492.66;6152598;23;20017;-68
2022/06/01 06:01:31;;;;;;;25.67;8.23;;;;;;;13.82;64.56;100505.81;6129902;23;20432;-68
2022/06/01 06:03:56;;;;;;;14.23;4.32;;;;;;;14.02;64.06;100498.09;6154663;23;20010;-69
2022/06/01 06:06:23;;;;;;;6.55;2.70;;;;;;;14.21;64.01;100495.94;6129215;23;20060;-69
2022/06/01 06:08:59;;;;;;;6.00;1.92;;;;;;;14.43;62.66;100503.47;6154819;23;20025;-68
2022/06/01 06:11:26;;;;;;;7.28;2.10;;;;;;;14.60;65.19;100505.53;6129690;23;20439;-69
2022/06/01 06:13:51;;;;;;;6.28;1.70;;;;;;;14.79;62.58;100508.06;6154484;23;20009;-69
2022/06/01 06:16:17;;;;;;;4.28;1.60;;;;;;;14.96;63.11;100502.56;6129703;23;20085;-69
2022/06/01 06:18:42;;;;;;;3.15;1.20;;;;;;;15.16;61.85;100514.31;6129848;23;20118;-69
2022/06/01 06:21:08;;;;;;;4.07;1.92;;;;;;;15.30;64.38;100508.59;6178980;23;20069;-69
2022/06/01 06:23:34;;;;;;;3.90;1.42;;;;;;;15.53;61.71;100509.28;6105347;23;20695;-69
2022/06/01 06:25:59;;;;;;;5.53;1.40;;;;;;;15.68;61.06;100507.97;6154295;23;20089;-69
2022/06/01 06:28:25;;;;;;;5.10;1.80;;;;;;;15.82;63.31;100506.69;6129719;23;20436;-71
2022/06/01 06:30:51;;;;;;;3.70;1.50;;;;;;;16.05;62.51;100514.94;6129866;23;20016;-69
2022/06/01 06:33:17;;;;;;;7.90;1.77;;;;;;;16.18;64.27;100508.28;6129643;23;20013;-69
2022/06/01 06:35:42;;;;;;;6.30;2.00;;;;;;;16.36;65.26;100519.50;6153769;23;20044;-69
2022/06/01 06:38:08;;;;;;;4.20;1.83;;;;;;;16.52;62.40;100510.22;6129561;23;20010;-69
2022/06/01 06:40:33;;;;;;;6.78;2.08;;;;;;;16.66;63.43;100515.63;6105186;23;20218;-68
2022/06/01 06:42:59;;;;;;;5.68;1.90;;;;;;;16.82;61.95;100523.50;6105246;23;20017;-69
2022/06/01 06:45:24;;;;;;;4.55;1.77;;;;;;;16.95;61.72;100523.28;6129586;23;20065;-69
2022/06/01 06:47:50;;;;;;;8.10;2.22;;;;;;;17.07;62.04;100521.75;6105165;23;20010;-69
2022/06/01 06:50:16;;;;;;;6.15;1.67;;;;;;;17.20;61.63;100526.31;6129418;23;20424;-69
2022/06/01 06:52:42;;;;;;;4.90;1.85;;;;;;;17.30;61.62;100525.94;6153686;23;20014;-69
2022/06/01 06:55:07;;;;;;;4.07;2.00;;;;;;;17.41;62.66;100529.13;6129284;23;20006;-69
2022/06/01 06:57:33;;;;;;;5.03;2.08;;;;;;;17.54;60.92;100530.06;6129431;23;20048;-69
2022/06/01 06:59:58;;;;;;;5.63;2.45;;;;;;;17.71;61.76;100534.72;6105041;23;20010;-69
2022/06/01 07:02:24;;;;;;;2.65;1.88;;;;;;;17.86;60.87;100536.97;6154036;23;20025;-69
2022/06/01 07:04:49;;;;;;;4.68;1.50;;;;;;;18.03;59.30;100545.25;6129359;23;20006;-69
2022/06/01 07:07:15;;;;;;;5.40;1.95;;;;;;;18.15;59.66;100543.66;6129112;23;20010;-69
2022/06/01 07:09:40;;;;;;;5.28;1.75;;;;;;;18.27;59.33;100546.50;6104872;23;20032;-69
2022/06/01 07:12:06;;;;;;;4.72;1.42;;;;;;;18.48;56.88;100543.69;6153385;23;20065;-69
2022/06/01 07:14:32;;;;;;;3.15;1.20;;;;;;;18.69;56.08;100543.59;6129255;23;20006;-69
2022/06/01 07:17:01;;;;;;;2.88;1.20;;;;;;;18.86;55.56;100545.41;6128472;23;20037;-69
2022/06/01 07:19:27;;;;;;;3.35;1.67;;;;;;;18.86;58.03;100549.06;6153692;23;20379;-69
2022/06/01 07:21:52;;;;;;;4.25;1.60;;;;;;;18.95;57.63;100541.34;6128874;23;20080;-69
2022/06/01 07:24:18;;;;;;;3.85;1.80;;;;;;;19.10;56.67;100544.63;6129497;23;20053;-69
2022/06/01 07:26:44;;;;;;;5.43;1.40;;;;;;;19.24;55.22;100547.09;6129289;23;20061;-69
2022/06/01 07:29:10;;;;;;;3.45;1.40;;;;;;;19.41;54.81;100542.03;6128962;23;20105;-69
2022/06/01 07:31:35;;;;;;;3.50;1.30;;;;;;;19.62;53.90;100541.09;6130587;23;20670;-69
2022/06/01 07:34:00;;;;;;;9.10;1.50;;;;;;;19.79;53.98;100551.31;6104702;23;20010;-69
2022/06/01 07:36:27;;;;;;;3.42;1.20;;;;;;;19.91;54.04;100548.44;6153353;23;20034;-69
2022/06/01 07:44:44;;;;;;;2.60;0.88;;;;;;;20.35;52.10;100539.25;6171429;23;20010;-69
2022/06/01 07:47:10;;;;;;;2.28;1.00;;;;;;;20.37;51.55;100539.72;6128727;23;20014;-69
2022/06/01 07:49:36;;;;;;;2.83;1.23;;;;;;;20.56;52.12;100536.22;6104322;23;20088;-69
2022/06/01 07:52:06;;;;;;;4.10;1.20;;;;;;;20.52;49.55;100538.94;6104181;23;20108;-69
2022/06/01 07:54:32;;;;;;;2.10;0.90;;;;;;;20.72;48.81;100543.53;6128160;23;20013;-69
2022/06/01 07:56:57;;;;;;;3.38;0.80;;;;;;;20.69;47.05;100541.44;6153525;23;20002;-69
2022/06/01 07:59:23;;;;;;;2.35;0.98;;;;;;;20.92;47.07;100547.31;6128999;23;20010;-70
2022/06/01 08:01:48;;;;;;;3.85;0.90;;;;;;;20.97;46.59;100543.38;6128677;23;20010;-69
2022/06/01 08:04:16;;;;;;;2.05;0.73;;;;;;;21.05;46.86;100550.84;6128909;23;20018;-69
2022/06/01 08:06:41;;;;;;;3.47;1.23;;;;;;;21.06;47.29;100546.84;6128329;23;20014;-69
2022/06/01 08:09:07;;;;;;;3.28;0.80;;;;;;;21.17;47.05;100541.47;6128785;23;20010;-69
2022/06/01 08:14:16;;;;;;;4.72;0.90;;;;;;;21.42;45.42;100544.91;6170870;23;20010;-73
2022/06/01 08:16:42;;;;;;;4.32;1.33;;;;;;;21.48;45.97;100537.81;6128647;23;20057;-70
2022/06/01 08:19:08;;;;;;;3.35;0.80;;;;;;;21.51;45.04;100539.09;6130320;23;20081;-69
2022/06/01 08:21:34;;;;;;;2.95;0.65;;;;;;;21.69;44.51;100539.50;6129834;23;20010;-69
2022/06/01 08:24:00;;;;;;;3.80;0.70;;;;;;;21.85;45.09;100543.09;6177751;23;20005;-69
2022/06/01 08:26:25;;;;;;;2.45;0.60;;;;;;;21.83;43.01;100546.28;6178059;23;20011;-69
2022/06/01 08:28:51;;;;;;;2.80;0.70;;;;;;;21.99;42.78;100539.75;6128454;23;20042;-69
2022/06/01 08:31:16;;;;;;;1.92;0.70;;;;;;;21.98;42.38;100546.59;6128911;23;20376;-69
2022/06/01 08:33:42;;;;;;;2.15;0.85;;;;;;;22.09;42.12;100541.97;6104134;23;20016;-69
2022/06/01 08:36:07;;;;;;;2.92;0.90;;;;;;;22.12;41.92;100531.94;6152791;23;20490;-69
2022/06/01 08:38:33;;;;;;;1.80;0.70;;;;;;;22.27;42.28;100529.06;6153136;23;20010;-69
2022/06/01 08:41:02;;;;;;;2.55;0.55;;;;;;;22.48;42.35;100530.69;6128669;23;20423;-69
2022/06/01 08:43:32;;;;;;;1.33;0.60;;;;;;;22.57;41.96;100527.63;6103554;23;20010;-69
2022/06/01 08:45:59;;;;;;;2.63;0.65;;;;;;;22.61;41.20;100523.66;6152987;23;20006;-69
2022/06/01 08:48:33;;;;;;;0.98;0.30;;;;;;;22.82;41.74;100516.78;6103780;23;20459;-69
2022/06/01 08:50:59;;;;;;;2.05;0.50;;;;;;;22.87;40.91;100520.09;6152031;23;20104;-69
2022/06/01 08:53:24;;;;;;;1.50;0.40;;;;;;;23.02;40.29;100514.72;6103795;23;20024;-69
2022/06/01 08:56:01;;;;;;;1.38;0.60;;;;;;;23.19;40.13;100512.16;6128270;23;20017;-69
2022/06/01 08:58:41;;;;;;;2.92;0.70;;;;;;;23.33;40.22;100516.44;6177581;23;20010;-69
2022/06/01 09:01:23;;;;;;;1.67;0.50;;;;;;;23.42;40.07;100516.97;6128547;23;20005;-69
2022/06/01 09:04:09;;;;;;;2.60;0.52;;;;;;;23.50;39.09;100518.72;6152933;23;20342;-69
2022/06/01 09:06:37;;;;;;;1.33;0.40;;;;;;;23.72;38.26;100519.06;6177124;23;20313;-69
2022/06/01 09:09:06;;;;;;;2.22;0.50;;;;;;;23.85;37.39;100518.44;6128149;23;20336;-69
2022/06/01 09:11:34;;;;;;;1.65;0.70;;;;;;;24.00;38.22;100508.09;6127876;23;20010;-69
2022/06/01 09:14:09;;;;;;;0.70;0.40;;;;;;;24.08;37.89;100507.00;6128259;23;20002;-69
2022/06/01 09:16:39;;;;;;;2.25;0.50;;;;;;;24.17;38.04;100509.53;6151438;23;20010;-69
2022/06/01 09:19:11;;;;;;;1.55;0.50;;;;;;;24.34;38.96;100501.63;6127909;23;20030;-69
2022/06/01 09:24:34;;;;;;;3.45;0.50;;;;;;;24.60;37.31;100507.22;6148750;23;20002;-69
2022/06/01 09:27:11;;;;;;;1.50;0.60;;;;;;;24.65;36.21;100492.63;6150775;23;20010;-69
2022/06/01 09:29:47;;;;;;;0.98;0.50;;;;;;;24.61;36.67;100506.00;6151272;23;20014;-68
2022/06/01 09:32:33;;;;;;;2.28;0.57;;;;;;;24.75;36.15;100506.13;6128032;23;20041;-68
2022/06/01 09:35:04;;;;;;;2.28;0.55;;;;;;;24.74;36.89;100507.34;6127375;23;20006;-69
2022/06/01 09:37:34;;;;;;;4.18;0.70;;;;;;;24.84;36.81;100491.59;6126821;23;20009;-68
2022/06/01 09:40:03;;;;;;;2.42;0.60;;;;;;;24.91;36.09;100496.56;6127661;23;20041;-69
2022/06/01 09:42:40;;;;;;;1.63;0.50;;;;;;;25.18;36.69;100497.19;6127705;23;20006;-68
2022/06/01 09:45:27;;;;;;;3.42;0.60;;;;;;;25.18;36.37;100500.88;6127315;23;20013;-69
2022/06/01 09:47:53;;;;;;;2.15;0.57;;;;;;;25.25;35.30;100499.28;6149797;23;20033;-68
2022/06/01 09:50:22;;;;;;;1.55;0.47;;;;;;;25.39;36.08;100488.00;6151977;23;20021;-69
2022/06/01 09:52:48;;;;;;;1.52;0.52;;;;;;;25.50;35.25;100493.78;6127617;23;20025;-69
2022/06/01 09:55:15;;;;;;;2.05;0.50;;;;;;;25.52;36.10;100492.16;6152608;23;20005;-69
2022/06/01 09:57:41;;;;;;;3.28;0.60;;;;;;;25.71;35.57;100495.91;6177088;23;20013;-69
2022/06/01 10:06:24;;;;;;;1.27;0.60;;;;;;;25.89;34.00;100490.38;6148324;23;20444;-68
2022/06/01 10:09:09;;;;;;;1.33;0.40;;;;;;;26.00;33.88;100489.19;6127608;23;20002;-69
2022/06/01 10:11:46;;;;;;;1.02;0.40;;;;;;;26.18;34.04;100486.41;6125680;23;20017;-68
2022/06/01 10:14:22;;;;;;;2.72;0.60;;;;;;;26.26;34.96;100488.06;6127633;23;20022;-69
2022/06/01 10:17:02;;;;;;;1.67;0.50;;;;;;;26.30;34.13;100476.69;6128975;23;20006;-69
2022/06/01 10:19:38;;;;;;;2.25;0.50;;;;;;;26.46;34.72;100479.16;6173777;23;20017;-69
2022/06/01 10:22:16;;;;;;;1.98;0.50;;;;;;;26.49;34.44;100478.34;6173388;23;20021;-69
2022/06/01 10:24:54;;;;;;;2.20;0.40;;;;;;;26.51;34.30;100473.91;6176149;23;20033;-69
2022/06/01 10:27:21;;;;;;;1.33;0.63;;;;;;;26.60;34.08;100478.41;6126828;23;20006;-69
2022/06/01 10:30:07;;;;;;;3.15;0.80;;;;;;;26.80;34.06;100467.44;6119954;23;20347;-69
2022/06/01 10:32:47;;;;;;;2.97;0.60;;;;;;;26.69;33.94;100473.13;6103290;23;20495;-69
2022/06/01 10:35:46;;;;;;;1.45;0.57;;;;;;;26.79;33.32;100465.81;6127347;23;20115;-68
2022/06/01 10:38:27;;;;;;;2.20;0.73;;;;;;;26.85;33.36;100465.00;6129361;23;20014;-68
2022/06/01 10:41:02;;;;;;;1.35;0.50;;;;;;;26.88;33.67;100467.03;6055913;23;20112;-69
2022/06/01 10:43:53;;;;;;;3.67;0.68;;;;;;;26.89;33.46;100468.66;6079889;23;20014;-69
2022/06/01 10:46:43;;;;;;;1.70;0.60;;;;;;;26.86;32.47;100466.63;6105700;23;20010;-69
2022/06/01 10:49:40;;;;;;;1.92;0.60;;;;;;;26.95;33.42;100466.22;6154292;23;20021;-68
2022/06/01 10:52:35;;;;;;;1.40;0.40;;;;;;;26.93;32.26;100471.50;6104934;23;20013;-69
2022/06/01 10:55:07;;;;;;;3.10;0.60;;;;;;;26.92;33.16;100467.84;6107638;23;20068;-69
2022/06/01 10:57:33;;;;;;;2.80;0.80;;;;;;;26.94;32.50;100473.97;6154311;23;20090;-69
2022/06/01 10:59:59;;;;;;;2.20;0.43;;;;;;;27.11;32.37;100474.38;6105590;23;20057;-69
2022/06/01 11:03:00;;;;;;;1.77;0.43;;;;;;;27.15;32.64;100473.13;6081039;23;20043;-69
2022/06/01 11:05:37;;;;;;;2.95;0.60;;;;;;;27.33;32.52;100480.88;6122258;23;20052;-69
2022/06/01 11:08:18;;;;;;;4.97;0.80;;;;;;;27.40;32.05;100475.97;6154007;23;20006;-69
2022/06/01 11:11:12;;;;;;;2.35;0.55;;;;;;;27.59;32.55;100471.88;6154428;23;20034;-69
2022/06/01 11:14:01;;;;;;;2.03;0.70;;;;;;;27.75;31.95;100474.28;6106118;23;20691;-69
2022/06/01 11:16:58;;;;;;;2.38;0.68;;;;;;;27.97;32.32;100477.06;6104712;23;20069;-69
2022/06/01 11:19:59;;;;;;;2.65;0.57;;;;;;;28.04;31.23;100477.84;6084674;23;20009;-69
2022/06/01 11:22:44;;;;;;;1.38;0.50;;;;;;;28.15;31.10;100486.34;6117494;23;20340;-69
2022/06/01 11:25:23;;;;;;;2.15;0.60;;;;;;;28.11;30.50;100479.88;6107319;23;20533;-68
2022/06/01 11:27:56;;;;;;;1.73;0.68;;;;;;;28.07;30.50;100479.88;6129139;23;20014;-69
2022/06/01 11:30:22;;;;;;;;;;;;;;;27.98;30.52;100478.69;6153823;23;20022;-69
2022/06/01 11:32:47;;;;;;;4.72;0.60;;;;;;;27.98;30.39;100470.94;6105204;23;19911;-69
2022/06/01 11:35:32;;;;;;;1.55;0.47;;;;;;;28.05;30.42;100467.22;6130171;23;20057;-69
2022/06/01 11:38:18;;;;;;;2.05;0.55;;;;;;;28.17;30.75;100475.34;6129194;23;20317;-69
2022/06/01 11:40:54;;;;;;;1.20;0.57;;;;;;;28.35;31.14;100471.56;6178795;23;20006;-69
2022/06/01 11:43:37;;;;;;;3.63;0.60;;;;;;;28.43;31.04;100476.84;6130670;23;20010;-68
2022/06/01 11:46:16;;;;;;;;;;;;;;;28.53;30.66;100483.75;6154238;23;20114;-69
2022/06/01 11:48:47;;;;;;;1.15;0.45;;;;;;;28.62;31.79;100480.41;6104620;23;19936;-69
2022/06/01 11:51:15;;;;;;;0.90;0.50;;;;;;;28.69;32.00;100478.28;6153141;23;20104;-69
2022/06/01 11:54:00;;;;;;;2.38;0.60;;;;;;;28.63;30.60;100471.41;6153320;23;20037;-69
2022/06/01 11:56:29;;;;;;;2.35;0.60;;;;;;;28.63;30.72;100479.97;6153428;23;20014;-68
2022/06/01 11:59:06;;;;;;;1.67;0.60;;;;;;;28.45;29.72;100476.44;6128814;23;20510;-69
2022/06/01 12:01:32;;;;;;;2.55;0.70;;;;;;;28.29;29.24;100483.44;6174761;23;20010;-68